Time;durP1;ratioP1;P1;durP2;ratioP2;P2;SDS_P1;SDS_P2;PMS_P1;PMS_P2;Temp;Humidity;BMP_temperature;BMP_pressure;BME280_temperature;BME280_humidity;BME280_pressure;Samples;Min_cycle;Max_cycle;Signal;HPM_P1;HPM_P2
2022/12/10 00:01:15;;;;;;;39.13;21.27;;;;;;;-2.63;100.00;99920.38;5087756;28;20039;-79
2022/12/10 00:03:42;;;;;;;42.05;20.30;;;;;;;-2.67;100.00;99921.47;5088196;28;20684;-79
2022/12/10 00:06:12;;;;;;;30.98;17.13;;;;;;;-2.69;100.00;99918.09;5086610;28;20027;-80
2022/12/10 00:08:38;;;;;;;30.90;16.92;;;;;;;-2.74;100.00;99922.66;5119911;27;20081;-80
2022/12/10 00:11:08;;;;;;;31.83;18.15;;;;;;;-2.72;100.00;99920.00;5102766;28;20122;-80
2022/12/10 00:13:35;;;;;;;28.75;17.17;;;;;;;-2.77;100.00;99923.63;5102453;28;20031;-80
2022/12/10 00:16:03;;;;;;;32.33;16.33;;;;;;;-2.80;100.00;99917.78;5088061;28;20384;-80
2022/12/10 00:18:29;;;;;;;27.35;16.77;;;;;;;-2.80;100.00;99921.19;5106247;28;20125;-79
2022/12/10 00:20:56;;;;;;;28.70;15.20;;;;;;;-2.82;100.00;99925.59;5103582;28;20056;-80
2022/12/10 00:23:23;;;;;;;27.75;14.93;;;;;;;-2.83;100.00;99931.66;5101157;28;20118;-80
2022/12/10 00:25:49;;;;;;;26.40;15.80;;;;;;;-2.86;100.00;99924.06;5106989;28;20396;-80
2022/12/10 00:28:16;;;;;;;28.52;15.70;;;;;;;-2.88;100.00;99926.72;5088706;28;20031;-80
2022/12/10 00:30:42;;;;;;;26.77;14.95;;;;;;;-2.91;100.00;99915.66;5105199;28;20027;-80
2022/12/10 00:33:08;;;;;;;26.08;15.52;;;;;;;-2.92;100.00;99916.59;5069334;28;20040;-80
2022/12/10 00:35:37;;;;;;;28.65;14.98;;;;;;;-2.92;100.00;99914.00;5104272;28;20395;-80
2022/12/10 00:38:03;;;;;;;26.30;14.48;;;;;;;-2.99;100.00;99906.53;5106161;28;20103;-79
2022/12/10 00:40:29;;;;;;;25.95;14.15;;;;;;;-3.07;100.00;99907.78;5105623;28;20433;-80
2022/12/10 00:42:55;;;;;;;27.08;14.18;;;;;;;-3.11;100.00;99909.66;5077947;28;20058;-79
2022/12/10 00:45:24;;;;;;;24.67;14.27;;;;;;;-3.17;100.00;99918.53;5102246;28;20035;-80
2022/12/10 00:47:52;;;;;;;25.73;13.63;;;;;;;-3.26;100.00;99922.38;5088607;28;20032;-80
2022/12/10 00:50:18;;;;;;;22.10;12.98;;;;;;;-3.31;100.00;99919.16;5082053;28;20035;-80
2022/12/10 00:52:47;;;;;;;23.92;14.07;;;;;;;-3.36;100.00;99911.59;5087308;28;20039;-79
2022/12/10 00:55:16;;;;;;;20.92;13.27;;;;;;;-3.33;100.00;99920.13;5084940;28;20039;-80
2022/12/10 00:57:42;;;;;;;24.00;13.15;;;;;;;-3.38;100.00;99916.00;5104741;28;20043;-79
2022/12/10 01:00:08;;;;;;;26.83;13.05;;;;;;;-3.34;100.00;99908.13;5107006;28;20506;-80
2022/12/10 01:02:34;;;;;;;25.30;14.82;;;;;;;-3.32;100.00;99906.28;5070132;28;20110;-79
2022/12/10 01:05:03;;;;;;;23.05;12.98;;;;;;;-3.29;100.00;99916.50;5078533;28;20839;-79
2022/12/10 01:07:31;;;;;;;25.17;13.68;;;;;;;-3.31;100.00;99901.06;5081310;28;20039;-79
2022/12/10 01:10:01;;;;;;;23.17;13.40;;;;;;;-3.26;100.00;99903.44;5098376;28;20062;-79
2022/12/10 01:12:38;;;;;;;21.85;12.20;;;;;;;-3.25;100.00;99905.13;5107108;28;20031;-79
2022/12/10 01:15:09;;;;;;;28.92;13.27;;;;;;;-3.28;100.00;99903.50;5100541;28;20388;-79
2022/12/10 01:17:56;;;;;;;25.05;12.45;;;;;;;-3.31;100.00;99898.47;5073816;28;20027;-79
2022/12/10 01:20:22;;;;;;;23.08;13.45;;;;;;;-3.36;100.00;99895.28;5096152;28;20055;-79
2022/12/10 01:22:52;;;;;;;23.27;13.15;;;;;;;-3.35;100.00;99891.78;5083280;28;20102;-79
2022/12/10 01:25:18;;;;;;;23.75;12.82;;;;;;;-3.37;100.00;99896.16;5103285;28;20035;-82
2022/12/10 01:27:44;;;;;;;23.02;13.05;;;;;;;-3.41;100.00;99887.69;5071424;28;20088;-81
2022/12/10 01:30:10;;;;;;;26.35;13.60;;;;;;;-3.39;100.00;99895.38;5091026;28;20042;-79
2022/12/10 01:32:42;;;;;;;28.55;12.93;;;;;;;-3.46;100.00;99900.00;5082809;28;20035;-79
2022/12/10 01:35:08;;;;;;;20.88;12.07;;;;;;;-3.48;100.00;99891.47;5103399;28;20050;-80
2022/12/10 01:37:34;;;;;;;21.02;13.38;;;;;;;-3.47;100.00;99895.72;5089940;28;20028;-80
2022/12/10 01:40:01;;;;;;;20.90;12.15;;;;;;;-3.47;100.00;99892.31;5107724;28;20028;-79
2022/12/10 01:42:27;;;;;;;28.67;13.32;;;;;;;-3.52;100.00;99880.44;5088914;28;20028;-79
2022/12/10 01:45:13;;;;;;;20.13;12.70;;;;;;;-3.56;100.00;99883.22;5102532;28;20499;-80
2022/12/10 01:47:54;;;;;;;26.77;13.52;;;;;;;-3.62;100.00;99885.19;5087007;28;20450;-79
2022/12/10 01:50:20;;;;;;;18.77;11.75;;;;;;;-3.69;100.00;99878.59;5074685;28;20035;-79
2022/12/10 01:52:50;;;;;;;23.70;13.35;;;;;;;-3.73;100.00;99879.63;5088821;28;20031;-79
2022/12/10 01:55:42;;;;;;;23.92;12.95;;;;;;;-3.71;100.00;99884.75;5086875;28;20027;-79
2022/12/10 01:58:10;;;;;;;25.25;13.65;;;;;;;-3.71;100.00;99877.81;5083709;28;20134;-80
2022/12/10 02:00:54;;;;;;;28.42;12.75;;;;;;;-3.69;100.00;99883.75;5105456;28;20036;-79
2022/12/10 02:03:38;;;;;;;25.27;13.30;;;;;;;-3.67;100.00;99884.53;5098335;28;20387;-79
2022/12/10 02:06:47;;;;;;;20.67;10.77;;;;;;;-3.69;100.00;99885.50;5092746;28;20032;-80
2022/12/10 02:09:36;;;;;;;20.20;11.30;;;;;;;-3.70;100.00;99882.09;5084568;28;20047;-79
2022/12/10 02:12:45;;;;;;;22.92;11.50;;;;;;;-3.66;100.00;99880.19;5087249;28;20051;-79
2022/12/10 02:15:18;;;;;;;21.48;11.25;;;;;;;-3.64;100.00;99897.31;5095982;28;20063;-80
2022/12/10 02:18:14;;;;;;;18.83;10.45;;;;;;;-3.58;100.00;99891.03;5086874;28;20031;-80
2022/12/10 02:20:57;;;;;;;22.75;11.52;;;;;;;-3.54;100.00;99890.00;5105698;28;20084;-80
2022/12/10 02:23:36;;;;;;;18.85;11.15;;;;;;;-3.49;100.00;99884.63;5082939;28;20032;-80
2022/12/10 02:26:13;;;;;;;19.30;10.55;;;;;;;-3.46;100.00;99883.66;5097251;28;20115;-80
2022/12/10 02:28:54;;;;;;;17.48;10.90;;;;;;;-3.41;100.00;99879.13;5088405;28;20032;-79
2022/12/10 02:31:32;;;;;;;21.42;11.32;;;;;;;-3.38;100.00;99877.22;5096225;28;20602;-80
2022/12/10 02:34:04;;;;;;;19.75;11.82;;;;;;;-3.35;100.00;99884.03;5106314;28;20441;-80
2022/12/10 02:36:38;;;;;;;18.85;10.50;;;;;;;-3.32;100.00;99873.53;5082688;28;20036;-80
2022/12/10 02:39:12;;;;;;;20.75;10.60;;;;;;;-3.28;100.00;99880.25;5111020;28;20037;-80
2022/12/10 02:41:51;;;;;;;29.13;12.00;;;;;;;-3.22;100.00;99879.13;5093583;28;20063;-80
2022/12/10 02:44:24;;;;;;;18.33;10.35;;;;;;;-3.16;100.00;99870.25;5080495;28;20028;-80
2022/12/10 02:46:53;;;;;;;19.65;11.52;;;;;;;-3.13;100.00;99867.53;5081286;28;20106;-80
2022/12/10 02:49:24;;;;;;;20.70;10.98;;;;;;;-3.13;100.00;99872.69;5070245;28;20024;-79
2022/12/10 02:51:58;;;;;;;20.95;11.02;;;;;;;-3.10;100.00;99877.72;5094043;28;20034;-80
2022/12/10 02:54:47;;;;;;;21.55;11.48;;;;;;;-3.05;100.00;99877.50;5087655;28;20023;-80
2022/12/10 02:57:37;;;;;;;29.40;10.90;;;;;;;-3.05;100.00;99875.78;5083155;28;20039;-80
2022/12/10 03:00:19;;;;;;;;;;;;;;;;;;;;;
2022/12/10 03:03:23;;;;;;;19.17;10.25;;;;;;;-3.04;100.00;99869.69;5080561;28;19934;-80
2022/12/10 03:06:03;;;;;;;24.70;11.73;;;;;;;-3.05;100.00;99862.84;5103058;28;20032;-80
2022/12/10 03:08:46;;;;;;;22.33;12.90;;;;;;;-3.04;100.00;99867.09;5086767;28;20038;-79
2022/12/10 03:11:17;;;;;;;18.52;11.00;;;;;;;-3.03;100.00;99873.13;5098314;28;20838;-79
2022/12/10 03:13:48;;;;;;;17.73;10.80;;;;;;;-2.99;100.00;99874.63;5105857;28;20051;-79
2022/12/10 03:16:16;;;;;;;18.80;10.80;;;;;;;-3.01;100.00;99868.72;5091330;28;20066;-80
2022/12/10 03:18:45;;;;;;;20.20;10.73;;;;;;;-3.00;100.00;99878.16;5094394;28;20083;-80
2022/12/10 03:21:15;;;;;;;21.80;11.13;;;;;;;-3.03;100.00;99886.06;5096203;28;20514;-79
2022/12/10 03:24:05;;;;;;;24.08;10.20;;;;;;;-3.05;100.00;99875.78;5105316;28;20031;-80
2022/12/10 03:26:47;;;;;;;20.50;10.35;;;;;;;-3.06;100.00;99874.13;5077018;28;20091;-80
2022/12/10 03:29:31;;;;;;;19.92;10.35;;;;;;;-3.03;100.00;99868.78;5091213;28;20031;-79
2022/12/10 03:32:22;;;;;;;18.13;10.43;;;;;;;-3.01;100.00;99872.13;5105919;28;20036;-80
2022/12/10 03:35:19;;;;;;;17.45;9.50;;;;;;;-2.96;100.00;99869.31;5104538;28;20044;-79
2022/12/10 03:37:56;;;;;;;17.63;9.63;;;;;;;-2.93;100.00;99863.19;5084640;28;20042;-80
2022/12/10 03:40:25;;;;;;;14.38;9.07;;;;;;;-2.96;100.00;99856.41;5105130;28;20027;-79
2022/12/10 03:42:51;;;;;;;18.50;9.55;;;;;;;-3.00;100.00;99850.56;5109287;28;20392;-80
2022/12/10 03:45:20;;;;;;;16.40;9.55;;;;;;;-3.02;100.00;99851.50;5107639;28;20047;-80
2022/12/10 03:47:46;;;;;;;20.75;9.57;;;;;;;-3.04;100.00;99855.94;5074835;28;20043;-79
2022/12/10 03:50:12;;;;;;;19.55;9.88;;;;;;;-3.06;100.00;99848.25;5105014;28;20035;-79
2022/12/10 03:52:39;;;;;;;15.32;9.40;;;;;;;-3.05;100.00;99851.66;5079201;28;20036;-79
2022/12/10 03:55:06;;;;;;;18.48;9.23;;;;;;;-3.07;100.00;99845.75;5087363;28;20114;-79
2022/12/10 03:57:33;;;;;;;18.05;9.80;;;;;;;-3.07;100.00;99849.16;5103264;28;20031;-79
2022/12/10 03:59:59;;;;;;;20.33;9.90;;;;;;;-3.05;100.00;99841.31;5100001;28;20055;-79
2022/12/10 04:02:30;;;;;;;16.77;9.20;;;;;;;-3.04;100.00;99841.25;5089002;28;20035;-79
2022/12/10 04:04:59;;;;;;;16.52;10.30;;;;;;;-3.01;100.00;99833.34;5101048;27;20039;-80
2022/12/10 04:07:25;;;;;;;16.80;9.30;;;;;;;-2.99;100.00;99835.84;5078668;28;20042;-79
2022/12/10 04:09:51;;;;;;;17.60;10.32;;;;;;;-3.03;100.00;99834.34;5097685;28;20036;-80
2022/12/10 04:12:20;;;;;;;16.58;10.15;;;;;;;-3.06;100.00;99832.75;5070972;28;20112;-79
2022/12/10 04:17:33;;;;;;;21.25;9.20;;;;;;;-3.15;100.00;99826.22;5084369;28;20051;-79
2022/12/10 04:19:59;;;;;;;20.35;9.80;;;;;;;-3.16;100.00;99834.91;5100804;28;20067;-79
2022/12/10 04:27:58;;;;;;;17.35;8.93;;;;;;;-3.19;100.00;99829.88;5079872;28;20032;-80
2022/12/10 04:30:24;;;;;;;17.10;8.93;;;;;;;-3.21;100.00;99828.25;5076711;28;20483;-79
2022/12/10 04:32:51;;;;;;;16.95;9.40;;;;;;;-3.22;100.00;99816.25;5069781;28;20369;-79
2022/12/10 04:35:17;;;;;;;15.38;8.75;;;;;;;-3.26;100.00;99821.56;5107989;28;20027;-79
2022/12/10 04:37:42;;;;;;;18.23;8.68;;;;;;;-3.32;100.00;99813.25;5098067;28;20043;-79
2022/12/10 04:40:09;;;;;;;17.05;8.98;;;;;;;-3.38;100.00;99815.19;5084622;28;20032;-79
2022/12/10 04:42:35;;;;;;;17.33;9.07;;;;;;;-3.42;100.00;99815.41;5100780;28;20400;-79
2022/12/10 04:45:01;;;;;;;13.65;8.00;;;;;;;-3.43;100.00;99817.19;5082433;28;20093;-79
2022/12/10 04:47:27;;;;;;;16.85;9.32;;;;;;;-3.44;100.00;99818.06;5101489;28;20085;-79
2022/12/10 04:49:53;;;;;;;17.08;8.98;;;;;;;-3.45;100.00;99825.88;5106168;28;20050;-80
2022/12/10 04:52:18;;;;;;;23.30;8.70;;;;;;;-3.54;100.00;99822.00;5075334;28;20088;-79
2022/12/10 04:54:45;;;;;;;15.80;8.90;;;;;;;-3.52;100.00;99820.19;5084980;28;20104;-79
2022/12/10 04:57:11;;;;;;;15.00;7.97;;;;;;;-3.51;100.00;99819.25;5070329;28;20036;-79
2022/12/10 04:59:38;;;;;;;14.45;7.40;;;;;;;-3.46;100.00;99825.06;5083442;28;20105;-80
2022/12/10 05:02:05;;;;;;;13.43;8.02;;;;;;;-3.41;100.00;99817.94;5104796;28;20023;-79
2022/12/10 05:04:31;;;;;;;14.32;7.15;;;;;;;-3.36;100.00;99825.50;5083558;28;20068;-79
2022/12/10 05:07:00;;;;;;;12.15;7.75;;;;;;;-3.33;100.00;99814.16;5090740;28;20081;-79
2022/12/10 05:09:27;;;;;;;12.60;7.10;;;;;;;-3.27;100.00;99824.22;5106118;28;20029;-79
2022/12/10 05:11:55;;;;;;;12.05;7.75;;;;;;;-3.24;100.00;99824.09;5101555;28;20032;-79
2022/12/10 05:14:30;;;;;;;10.98;6.93;;;;;;;-3.21;100.00;99825.69;5066484;28;20093;-79
2022/12/10 05:16:56;;;;;;;13.68;6.78;;;;;;;-3.21;100.00;99826.53;5087086;28;20039;-79
2022/12/10 05:19:31;;;;;;;14.27;7.53;;;;;;;-3.19;100.00;99822.13;5060774;28;20032;-88
2022/12/10 05:24:41;;;;;;;12.60;7.47;;;;;;;-3.13;100.00;99823.56;5101062;28;20035;-79
2022/12/10 05:27:12;;;;;;;13.02;7.75;;;;;;;-3.10;100.00;99815.69;5073264;28;20358;-79
2022/12/10 05:29:38;;;;;;;12.65;7.57;;;;;;;-3.06;100.00;99816.38;5086694;28;20035;-87
2022/12/10 05:32:07;;;;;;;13.05;7.47;;;;;;;-3.04;100.00;99806.81;5090128;28;20043;-86
2022/12/10 05:34:45;;;;;;;16.27;8.90;;;;;;;-3.03;100.00;99804.16;5091520;28;20042;-79
2022/12/10 05:37:11;;;;;;;16.13;8.98;;;;;;;-3.08;100.00;99806.13;5068767;28;20071;-79
2022/12/10 05:39:37;;;;;;;14.88;7.88;;;;;;;-3.11;100.00;99807.06;5073841;28;20472;-79
2022/12/10 05:42:16;;;;;;;13.70;7.28;;;;;;;-3.15;100.00;99807.28;5094504;28;20122;-79
2022/12/10 05:44:42;;;;;;;11.77;7.07;;;;;;;-3.22;100.00;99808.50;5087029;28;20059;-79
2022/12/10 05:47:08;;;;;;;14.43;7.82;;;;;;;-3.24;100.00;99817.19;5102839;28;20040;-81
2022/12/10 05:49:33;;;;;;;12.05;7.20;;;;;;;-3.30;100.00;99801.94;5085015;28;20144;-81
2022/12/10 05:51:59;;;;;;;17.15;8.65;;;;;;;-3.31;100.00;99810.59;5078687;28;20028;-78
2022/12/10 05:54:26;;;;;;;14.13;8.05;;;;;;;-3.30;100.00;99801.94;5088262;28;20134;-79
2022/12/10 05:57:01;;;;;;;12.82;6.97;;;;;;;-3.26;100.00;99805.22;5074376;28;20039;-79
2022/12/10 05:59:30;;;;;;;12.00;7.35;;;;;;;-3.26;100.00;99798.31;5098306;28;20524;-79
2022/12/10 06:01:56;;;;;;;13.77;7.43;;;;;;;-3.25;100.00;99799.97;5106955;28;20039;-79
2022/12/10 06:04:22;;;;;;;14.43;7.70;;;;;;;-3.19;100.00;99808.34;5068602;28;20032;-87
2022/12/10 06:06:49;;;;;;;12.27;7.22;;;;;;;-3.20;100.00;99804.09;5107592;28;20046;-87
2022/12/10 06:09:27;;;;;;;18.92;8.02;;;;;;;-3.15;100.00;99808.13;5109646;28;20066;-79
2022/12/10 06:11:52;;;;;;;13.23;7.78;;;;;;;-3.14;100.00;99809.81;5085252;28;20493;-78
2022/12/10 06:14:18;;;;;;;11.23;7.13;;;;;;;-3.13;100.00;99806.34;5106797;28;20031;-79
2022/12/10 06:16:44;;;;;;;16.20;7.68;;;;;;;-3.09;100.00;99804.41;5078149;28;20051;-79
2022/12/10 06:19:10;;;;;;;13.93;8.00;;;;;;;-3.06;100.00;99793.13;5104684;28;20392;-87
2022/12/10 06:21:39;;;;;;;11.68;6.88;;;;;;;-3.04;100.00;99793.88;5034286;28;20404;-89
2022/12/10 06:24:05;;;;;;;12.90;8.00;;;;;;;-3.01;100.00;99785.97;5107397;28;20035;-90
2022/12/10 06:26:30;;;;;;;13.85;7.75;;;;;;;-2.99;100.00;99789.31;5107980;28;20036;-89
2022/12/10 06:28:56;;;;;;;16.08;8.25;;;;;;;-2.96;100.00;99789.16;5099401;28;20040;-81
2022/12/10 06:31:23;;;;;;;10.57;6.65;;;;;;;-2.93;100.00;99791.59;5092578;28;20070;-81
2022/12/10 06:33:49;;;;;;;11.80;6.82;;;;;;;-2.92;100.00;99795.88;5090674;28;20058;-89
2022/12/10 06:36:17;;;;;;;14.30;7.10;;;;;;;-2.89;100.00;99790.56;5105155;28;20118;-89
2022/12/10 06:38:43;;;;;;;12.20;7.70;;;;;;;-2.83;100.00;99792.00;5087112;28;20035;-82
2022/12/10 06:41:12;;;;;;;11.35;7.20;;;;;;;-2.82;100.00;99792.84;5106129;28;20024;-82
2022/12/10 06:43:38;;;;;;;13.73;7.53;;;;;;;-2.81;100.00;99790.19;5084980;28;20024;-81
2022/12/10 06:46:10;;;;;;;11.88;6.72;;;;;;;-2.80;100.00;99786.69;5090144;28;20062;-81
2022/12/10 06:48:36;;;;;;;10.38;6.75;;;;;;;-2.82;100.00;99785.91;5090079;28;20031;-81
2022/12/10 06:51:04;;;;;;;11.90;6.88;;;;;;;-2.81;100.00;99785.00;5111184;28;20068;-81
2022/12/10 06:53:31;;;;;;;12.43;7.05;;;;;;;-2.82;100.00;99788.50;5102830;28;20111;-80
2022/12/10 06:55:59;;;;;;;12.55;6.50;;;;;;;-2.84;100.00;99781.72;5099180;28;20081;-80
2022/12/10 06:58:28;;;;;;;12.98;7.55;;;;;;;-2.89;100.00;99782.81;5104890;28;20127;-80
2022/12/10 07:01:05;;;;;;;10.93;6.90;;;;;;;-2.90;100.00;99788.88;5103915;28;20394;-80
2022/12/10 07:03:32;;;;;;;10.85;6.85;;;;;;;-2.94;100.00;99783.91;5089319;28;20484;-80
2022/12/10 07:05:59;;;;;;;10.73;6.85;;;;;;;-2.93;100.00;99780.44;5108709;28;20360;-80
2022/12/10 07:08:25;;;;;;;13.50;6.07;;;;;;;-2.92;100.00;99787.28;5088481;28;20034;-80
2022/12/10 07:10:51;;;;;;;9.10;6.07;;;;;;;-2.95;100.00;99783.09;5065504;28;20039;-80
2022/12/10 07:13:16;;;;;;;10.85;6.47;;;;;;;-2.94;100.00;99783.91;5071911;28;20032;-80
2022/12/10 07:15:42;;;;;;;13.10;6.38;;;;;;;-2.97;100.00;99790.09;5106068;28;20055;-87
2022/12/10 07:18:08;;;;;;;10.82;5.90;;;;;;;-2.95;100.00;99795.19;5086392;28;20040;-88
2022/12/10 07:20:34;;;;;;;10.57;5.68;;;;;;;-2.97;100.00;99792.66;5093302;28;20770;-80
2022/12/10 07:23:01;;;;;;;11.57;6.30;;;;;;;-2.96;100.00;99794.34;5076731;28;20426;-80
2022/12/10 07:25:27;;;;;;;9.50;6.38;;;;;;;-2.95;100.00;99800.34;5102614;28;20054;-80
2022/12/10 07:27:52;;;;;;;9.98;6.05;;;;;;;-2.97;100.00;99799.56;5106991;28;20457;-79
2022/12/10 07:30:19;;;;;;;11.18;6.43;;;;;;;-3.00;100.00;99792.81;5091809;28;20057;-80
2022/12/10 07:32:44;;;;;;;12.55;6.30;;;;;;;-3.02;100.00;99794.63;5099844;28;20492;-80
2022/12/10 07:35:10;;;;;;;11.23;6.32;;;;;;;-3.07;100.00;99796.63;5091625;28;20069;-80
2022/12/10 07:37:39;;;;;;;8.98;6.15;;;;;;;-3.11;100.00;99799.31;5079180;28;20044;-79
2022/12/10 07:40:05;;;;;;;10.73;6.03;;;;;;;-3.12;100.00;99795.06;5108403;28;20484;-80
2022/12/10 07:42:32;;;;;;;10.38;5.03;;;;;;;-3.14;100.00;99796.06;5089511;28;20027;-80
2022/12/10 07:44:58;;;;;;;9.75;5.00;;;;;;;-3.16;100.00;99785.78;5067832;28;20047;-79
2022/12/10 07:47:27;;;;;;;34.33;23.20;;;;;;;-3.14;100.00;99793.47;5099659;28;20110;-80
2022/12/10 07:50:03;;;;;;;140.60;82.53;;;;;;;-3.12;100.00;99789.91;5070363;28;20069;-80
2022/12/10 07:52:39;;;;;;;48.97;29.88;;;;;;;-3.09;100.00;99794.06;5101904;28;20556;-80
2022/12/10 07:55:08;;;;;;;19.25;11.65;;;;;;;-3.12;100.00;99795.06;5104473;28;20046;-80
2022/12/10 07:57:34;;;;;;;40.67;25.35;;;;;;;-3.15;100.00;99795.22;5105984;28;20119;-80
2022/12/10 08:00:03;;;;;;;21.48;14.85;;;;;;;-3.19;100.00;99793.69;5102763;28;20138;-80
2022/12/10 08:02:37;;;;;;;29.30;18.25;;;;;;;-3.19;100.00;99792.84;5108323;28;20031;-80
2022/12/10 08:05:03;;;;;;;31.75;22.67;;;;;;;-3.21;100.00;99786.91;5100898;28;20035;-80
2022/12/10 08:07:33;;;;;;;24.85;17.55;;;;;;;-3.25;100.00;99787.03;5090282;28;20038;-79
2022/12/10 08:10:08;;;;;;;25.20;18.77;;;;;;;-3.27;100.00;99783.72;5108413;28;20493;-80
2022/12/10 08:12:37;;;;;;;16.52;11.73;;;;;;;-3.28;100.00;99786.38;5086579;28;20044;-80
2022/12/10 08:15:21;;;;;;;13.02;7.35;;;;;;;-3.27;100.00;99788.03;5081932;28;20035;-78
2022/12/10 08:17:48;;;;;;;10.02;6.53;;;;;;;-3.27;100.00;99796.63;5099043;28;20078;-81
2022/12/10 08:20:13;;;;;;;11.45;7.82;;;;;;;-3.26;100.00;99795.72;5086629;28;20090;-81
2022/12/10 08:22:39;;;;;;;11.48;5.82;;;;;;;-3.25;100.00;99797.38;5103478;28;20050;-81
2022/12/10 08:25:06;;;;;;;14.32;8.20;;;;;;;-3.25;100.00;99799.97;5081900;28;20027;-79
2022/12/10 08:27:36;;;;;;;11.52;6.85;;;;;;;-3.24;100.00;99795.66;5103484;28;20039;-79
2022/12/10 08:30:09;;;;;;;19.48;11.13;;;;;;;-3.25;100.00;99799.16;5083704;28;20503;-79
2022/12/10 08:32:36;;;;;;;21.15;11.65;;;;;;;-3.28;100.00;99789.78;5069967;28;20123;-79
2022/12/10 08:35:09;;;;;;;40.75;26.15;;;;;;;-3.28;100.00;99799.28;5101975;28;20040;-79
2022/12/10 08:37:35;;;;;;;39.88;24.45;;;;;;;-3.26;100.00;99797.47;5091603;28;20075;-79
2022/12/10 08:40:01;;;;;;;27.40;16.80;;;;;;;-3.26;100.00;99800.03;5102872;28;20067;-79
2022/12/10 08:42:27;;;;;;;16.42;10.27;;;;;;;-3.24;100.00;99799.09;5063978;28;20028;-79
2022/12/10 08:44:57;;;;;;;15.55;9.18;;;;;;;-3.24;100.00;99803.41;5103671;28;20045;-79
2022/12/10 08:47:23;;;;;;;15.40;7.28;;;;;;;-3.24;100.00;99806.00;5066330;28;20157;-79
2022/12/10 08:49:50;;;;;;;16.40;7.95;;;;;;;-3.22;100.00;99809.34;5068490;28;20131;-79
2022/12/10 08:52:18;;;;;;;14.70;8.15;;;;;;;-3.21;100.00;99808.44;5108086;28;20040;-79
2022/12/10 08:54:44;;;;;;;11.82;6.53;;;;;;;-3.20;100.00;99804.94;5081288;28;20043;-80
2022/12/10 08:57:10;;;;;;;11.18;6.45;;;;;;;-3.16;100.00;99808.22;5091865;28;20400;-79
2022/12/10 08:59:36;;;;;;;16.02;6.80;;;;;;;-3.16;100.00;99803.88;5088368;28;20059;-79
2022/12/10 09:02:04;;;;;;;16.45;8.38;;;;;;;-3.15;100.00;99815.91;5072596;28;20028;-79
2022/12/10 09:04:30;;;;;;;11.23;6.13;;;;;;;-3.15;100.00;99807.28;5104702;28;20051;-79
2022/12/10 09:06:56;;;;;;;13.57;5.82;;;;;;;-3.15;100.00;99810.72;5084331;28;20027;-79
2022/12/10 09:09:22;;;;;;;8.10;5.25;;;;;;;-3.20;100.00;99804.94;5090866;28;20067;-79
2022/12/10 09:11:48;;;;;;;11.68;5.82;;;;;;;-3.23;100.00;99807.66;5061972;28;20185;-79
2022/12/10 09:14:14;;;;;;;12.48;5.63;;;;;;;-3.21;100.00;99807.59;5076103;28;20131;-80
2022/12/10 09:16:40;;;;;;;10.15;5.25;;;;;;;-3.18;100.00;99812.59;5069878;28;20067;-79
2022/12/10 09:19:06;;;;;;;15.20;5.82;;;;;;;-3.12;100.00;99820.06;5103323;27;20076;-80
2022/12/10 09:21:32;;;;;;;25.40;15.95;;;;;;;-3.07;100.00;99812.94;5104532;28;20035;-80
2022/12/10 09:23:58;;;;;;;23.83;18.58;;;;;;;-2.99;100.00;99818.59;5102387;28;20032;-80
2022/12/10 09:26:25;;;;;;;27.63;21.25;;;;;;;-2.89;100.00;99819.00;5088661;28;20039;-80
2022/12/10 09:28:51;;;;;;;20.27;14.73;;;;;;;-2.80;100.00;99816.91;5104188;28;20032;-80
2022/12/10 09:31:19;;;;;;;14.93;10.40;;;;;;;-2.71;100.00;99820.78;5086248;28;20184;-79
2022/12/10 09:33:46;;;;;;;23.00;14.50;;;;;;;-2.69;100.00;99819.78;5072378;28;20032;-79
2022/12/10 09:36:13;;;;;;;18.10;12.43;;;;;;;-2.66;100.00;99817.03;5076093;28;20036;-78
2022/12/10 09:38:41;;;;;;;20.55;14.13;;;;;;;-2.61;100.00;99814.22;5078199;28;20035;-78
2022/12/10 09:41:10;;;;;;;16.25;10.75;;;;;;;-2.55;100.00;99813.09;5105983;28;20399;-79
2022/12/10 09:44:03;;;;;;;15.75;10.35;;;;;;;-2.50;100.00;99808.56;5085773;28;20107;-80
2022/12/10 09:46:44;;;;;;;23.40;12.63;;;;;;;-2.45;100.00;99819.50;5106695;28;20562;-80
2022/12/10 09:49:28;;;;;;;14.27;9.00;;;;;;;-2.43;100.00;99809.06;5068952;28;20035;-79
2022/12/10 09:52:00;;;;;;;12.05;7.47;;;;;;;-2.43;100.00;99809.06;5096176;28;20086;-80
2022/12/10 09:54:58;;;;;;;78.97;46.33;;;;;;;-2.39;100.00;99813.19;5071954;28;20038;-79
2022/12/10 09:57:39;;;;;;;50.55;27.17;;;;;;;-2.35;100.00;99817.28;5087917;28;20477;-79
2022/12/10 10:00:15;;;;;;;40.97;23.55;;;;;;;-2.30;100.00;99815.31;5094091;28;20127;-78
2022/12/10 10:02:41;;;;;;;26.25;12.18;;;;;;;-2.27;100.00;99820.34;5103384;28;20032;-79
2022/12/10 10:05:07;;;;;;;24.67;14.50;;;;;;;-2.16;100.00;99821.53;5066018;28;20092;-79
2022/12/10 10:07:53;;;;;;;25.10;19.15;;;;;;;-2.09;100.00;99822.91;5099977;28;20032;-79
2022/12/10 10:10:30;;;;;;;;;;;;;;;-2.09;100.00;99824.66;5093048;28;20024;-79
2022/12/10 10:13:26;;;;;;;11.07;5.55;;;;;;;-2.00;100.00;99826.78;5100476;28;19977;-80
2022/12/10 10:15:52;;;;;;;8.63;5.70;;;;;;;-1.98;100.00;99830.13;5085747;28;20040;-79
2022/12/10 10:18:37;;;;;;;8.05;5.47;;;;;;;-1.91;100.00;99828.88;5106027;28;20035;-79
2022/12/10 10:21:07;;;;;;;11.73;7.13;;;;;;;-1.88;100.00;99828.72;5086700;28;20063;-79
2022/12/10 10:23:33;;;;;;;10.38;6.65;;;;;;;-1.82;100.00;99839.69;5063664;28;20024;-79
2022/12/10 10:25:59;;;;;;;9.23;6.20;;;;;;;-1.76;100.00;99829.84;5087939;28;20051;-79
2022/12/10 10:28:27;;;;;;;11.57;6.07;;;;;;;-1.69;100.00;99829.53;5103180;28;20020;-79
2022/12/10 10:30:54;;;;;;;13.13;6.90;;;;;;;-1.68;100.00;99846.75;5106443;28;20495;-80
2022/12/10 10:33:20;;;;;;;10.48;6.45;;;;;;;-1.62;100.00;99833.47;5101081;28;20036;-79
2022/12/10 10:35:54;;;;;;;9.02;6.00;;;;;;;-1.50;100.00;99840.59;5089348;28;20039;-79
2022/12/10 10:38:25;;;;;;;10.25;5.88;;;;;;;-1.44;100.00;99834.25;5087075;28;20036;-78
2022/12/10 10:40:53;;;;;;;13.95;6.15;;;;;;;-1.37;100.00;99834.78;5088803;28;20154;-79
2022/12/10 10:43:25;;;;;;;9.43;5.30;;;;;;;-1.30;100.00;99828.31;5083528;28;20032;-79
2022/12/10 10:46:21;;;;;;;10.13;5.97;;;;;;;-1.21;100.00;99836.53;5082520;28;20534;-78
2022/12/10 10:48:47;;;;;;;8.43;5.50;;;;;;;-1.16;100.00;99826.72;5088851;28;20052;-78
2022/12/10 10:51:15;;;;;;;12.55;7.15;;;;;;;-1.06;100.00;99834.84;5090100;28;20392;-78
2022/12/10 10:53:52;;;;;;;11.48;6.72;;;;;;;-0.96;100.00;99830.84;5107654;28;20499;-78
2022/12/10 10:56:25;;;;;;;8.27;5.75;;;;;;;-0.88;100.00;99830.41;5105159;27;20065;-78
2022/12/10 10:59:00;;;;;;;7.88;5.55;;;;;;;-0.80;100.00;99824.78;5098957;28;20055;-78
2022/12/10 11:01:49;;;;;;;10.07;5.85;;;;;;;-0.70;100.00;99820.72;5100074;28;20480;-78
2022/12/10 11:04:17;;;;;;;9.55;5.65;;;;;;;-0.65;100.00;99821.31;5093308;28;20040;-79
2022/12/10 11:06:44;;;;;;;9.88;5.85;;;;;;;-0.57;100.00;99818.28;5104550;28;20070;-78
2022/12/10 11:09:27;;;;;;;7.57;5.47;;;;;;;-0.47;100.00;99823.78;5091819;28;20395;-79
2022/12/10 11:12:03;;;;;;;7.78;5.05;;;;;;;-0.40;100.00;99817.28;5109012;28;20050;-79
2022/12/10 11:14:43;;;;;;;8.43;6.00;;;;;;;-0.32;100.00;99814.25;5103728;28;20070;-79
2022/12/10 11:17:09;;;;;;;13.75;8.02;;;;;;;-0.27;100.00;99801.03;5105627;28;20035;-79
2022/12/10 11:19:34;;;;;;;25.45;16.08;;;;;;;-0.21;100.00;99805.00;5093919;28;20043;-79
2022/12/10 11:22:19;;;;;;;19.08;12.93;;;;;;;-0.11;100.00;99807.91;5088962;28;20035;-79
2022/12/10 11:24:47;;;;;;;26.63;15.40;;;;;;;-0.06;100.00;99811.03;5076641;28;20031;-79
2022/12/10 11:27:44;;;;;;;25.30;14.25;;;;;;;0.03;100.00;99800.13;5108604;27;20035;-80
2022/12/10 11:30:21;;;;;;;28.55;16.77;;;;;;;0.09;100.00;99801.50;5107085;28;20043;-79
2022/12/10 11:33:32;;;;;;;21.63;11.35;;;;;;;0.11;100.00;99805.69;5094585;28;20101;-80
2022/12/10 11:36:16;;;;;;;30.23;17.70;;;;;;;0.10;100.00;99804.00;5031685;28;20044;-80
2022/12/10 11:39:09;;;;;;;57.65;29.17;;;;;;;0.20;100.00;99801.69;5088599;28;20043;-80
2022/12/10 11:41:43;;;;;;;32.53;19.15;;;;;;;0.28;100.00;99806.44;5106192;28;20092;-80
2022/12/10 11:44:24;;;;;;;64.50;36.70;;;;;;;0.36;100.00;99800.75;5085810;28;20609;-80
2022/12/10 11:47:27;;;;;;;43.42;26.27;;;;;;;0.45;100.00;99796.75;5106883;28;20093;-80